Aérodrome :
LOGIN :

S'inscrire | Disclaimer

   EN    FR    IT 

 










Légende :    VFR   VFR Marginal   IFR   IFR Intensif   IFR Très Intensif
Visi : 
Plafond : 
>= 8 km
>= 3000ft
5 à 8 km
1000 à 3000 ft
1500m à 5 km
500 à 1000 ft
800 à 1500m
200 à 500 ft
< 800m
< 200 ft
Symboles :   Orages  Brouillard  Fortes neiges  Fortes précipitations  Vent > 20 kt
SIGMETs :   Divers  Orages  Givrage  Turbulence  Onde Orograph.  Cendres Volcan.






- Altitude de l'aérodrome : 587 ft
- Code IATA : XCR


LFOK - Chalons Vatry

DERNIER METAR :
  • 240130Z AUTO 25010KT 9999 OVC012 01/00 Q0999 TEMPO 3000 BR OVC003

METARs EXPIRÉS :
  • 240100Z AUTO 25010KT 9999 BKN013 01/00 Q0999 TEMPO 3000 BR OVC003
  • 240030Z AUTO 25009KT 9999 SCT014 SCT020 00/M01 Q0998 TEMPO 3000 BR OVC003
  • 240000Z AUTO 26009KT 9999 SCT014 SCT019 00/M01 Q0998 TEMPO 3000 BR OVC003
  • 232330Z AUTO 28011KT 9999 SCT013 SCT018 01/M01 Q0998 TEMPO 3000 BR OVC003
  • 232300Z AUTO 29014KT 9999 BKN017 01/M01 Q0998 TEMPO 3000 BR OVC003 BECMG 22005KT

TAF TAF LFOK
Valide du 24 à 00h jusqu'au 25 à 00h UTC


232300Z 2400/2424 30012KT 9999 SCT013 SCT030
TEMPO 2400/2412 3000 BR OVC003
BECMG 2401/2405 24005KT
BECMG 2409/2412 17012KT
BECMG 2414/2416 2000 SN BKN003 OVC013
BECMG 2417/2419 23012KT 9999 NSW BKN005
TEMPO 2422/2424 2000 SHRASN BKN003 BKN015TCU



MET'MAP, la Météo Aéronautique d'un coup d'oeil ! - Copyright ORBIFLY Décembre 2007 - Disclaimer

ORBIFLY MET'MAP TEAM :

Programmation & Développement : Alexandra Zaïnal
Sur une idée originale de : Baudouin d'Aumeries
Assistance à la programmation : Marc-Olivier Méhu
Soutien technique & logistique : Manuel Goepfert

Contact : metmap@orbifly.com




SOURCES & CREDITS :

   NOAA